sensor_id;sensor_type;location;lat;lon;timestamp;temperature;humidity
356;DHT22;62514;48.112;11.566;2024-01-10T00:02:01;-6.40;29.60
356;DHT22;62514;48.112;11.566;2024-01-10T00:04:28;-6.30;29.40
356;DHT22;62514;48.112;11.566;2024-01-10T00:06:54;-6.30;29.30
356;DHT22;62514;48.112;11.566;2024-01-10T00:09:20;-6.20;29.40
356;DHT22;62514;48.112;11.566;2024-01-10T00:11:46;-6.10;29.60
356;DHT22;62514;48.112;11.566;2024-01-10T00:14:12;-6.00;29.70
356;DHT22;62514;48.112;11.566;2024-01-10T00:16:38;-6.00;29.90
356;DHT22;62514;48.112;11.566;2024-01-10T00:19:04;-5.90;29.90
356;DHT22;62514;48.112;11.566;2024-01-10T00:21:30;-5.90;29.70
356;DHT22;62514;48.112;11.566;2024-01-10T00:23:57;-5.90;29.70
356;DHT22;62514;48.112;11.566;2024-01-10T00:26:23;-5.90;29.90
356;DHT22;62514;48.112;11.566;2024-01-10T00:28:49;-6.00;30.70
356;DHT22;62514;48.112;11.566;2024-01-10T00:31:15;-6.00;31.00
356;DHT22;62514;48.112;11.566;2024-01-10T00:33:41;-6.00;31.40
356;DHT22;62514;48.112;11.566;2024-01-10T00:36:07;-6.00;31.40
356;DHT22;62514;48.112;11.566;2024-01-10T00:38:33;-6.00;31.40
356;DHT22;62514;48.112;11.566;2024-01-10T00:40:59;-6.00;31.90
356;DHT22;62514;48.112;11.566;2024-01-10T00:43:25;-5.90;32.20
356;DHT22;62514;48.112;11.566;2024-01-10T00:45:51;-5.80;31.70
356;DHT22;62514;48.112;11.566;2024-01-10T00:48:17;-5.80;32.20
356;DHT22;62514;48.112;11.566;2024-01-10T00:50:43;-5.80;32.40
356;DHT22;62514;48.112;11.566;2024-01-10T00:53:12;-5.80;32.40
356;DHT22;62514;48.112;11.566;2024-01-10T00:55:39;-5.80;32.50
356;DHT22;62514;48.112;11.566;2024-01-10T00:58:05;-5.80;32.70
356;DHT22;62514;48.112;11.566;2024-01-10T01:00:32;-5.70;32.80
356;DHT22;62514;48.112;11.566;2024-01-10T01:02:58;-5.70;32.10
356;DHT22;62514;48.112;11.566;2024-01-10T01:05:25;-5.80;32.00
356;DHT22;62514;48.112;11.566;2024-01-10T01:07:52;-5.80;32.50
356;DHT22;62514;48.112;11.566;2024-01-10T01:10:18;-5.80;33.10
356;DHT22;62514;48.112;11.566;2024-01-10T01:12:44;-5.70;33.50
356;DHT22;62514;48.112;11.566;2024-01-10T01:15:10;-5.70;33.50
356;DHT22;62514;48.112;11.566;2024-01-10T01:17:36;-5.70;33.70
356;DHT22;62514;48.112;11.566;2024-01-10T01:20:02;-5.60;34.00
356;DHT22;62514;48.112;11.566;2024-01-10T01:22:30;-5.60;33.40
356;DHT22;62514;48.112;11.566;2024-01-10T01:24:57;-5.50;33.40
356;DHT22;62514;48.112;11.566;2024-01-10T01:27:23;-5.50;33.00
356;DHT22;62514;48.112;11.566;2024-01-10T01:29:49;-5.60;32.50
356;DHT22;62514;48.112;11.566;2024-01-10T01:32:15;-5.60;32.90
356;DHT22;62514;48.112;11.566;2024-01-10T01:34:41;-5.60;33.30
356;DHT22;62514;48.112;11.566;2024-01-10T01:37:07;-5.50;33.10
356;DHT22;62514;48.112;11.566;2024-01-10T01:39:33;-5.50;33.10
356;DHT22;62514;48.112;11.566;2024-01-10T01:41:59;-5.50;33.10
356;DHT22;62514;48.112;11.566;2024-01-10T01:44:25;-5.50;33.20
356;DHT22;62514;48.112;11.566;2024-01-10T01:46:51;-5.50;33.10
356;DHT22;62514;48.112;11.566;2024-01-10T01:49:17;-5.50;33.30
356;DHT22;62514;48.112;11.566;2024-01-10T01:51:43;-5.40;32.80
356;DHT22;62514;48.112;11.566;2024-01-10T01:54:10;-5.40;32.70
356;DHT22;62514;48.112;11.566;2024-01-10T01:56:37;-5.40;32.60
356;DHT22;62514;48.112;11.566;2024-01-10T01:59:04;-5.40;32.50
356;DHT22;62514;48.112;11.566;2024-01-10T02:01:31;-5.40;32.70
356;DHT22;62514;48.112;11.566;2024-01-10T02:03:57;-5.40;32.60
356;DHT22;62514;48.112;11.566;2024-01-10T02:06:23;-5.30;31.80
356;DHT22;62514;48.112;11.566;2024-01-10T02:08:49;-5.30;31.80
356;DHT22;62514;48.112;11.566;2024-01-10T02:11:15;-5.30;31.80
356;DHT22;62514;48.112;11.566;2024-01-10T02:13:42;-5.30;31.80
356;DHT22;62514;48.112;11.566;2024-01-10T02:16:08;-5.30;32.00
356;DHT22;62514;48.112;11.566;2024-01-10T02:18:34;-5.30;31.80
356;DHT22;62514;48.112;11.566;2024-01-10T02:21:01;-5.30;31.70
356;DHT22;62514;48.112;11.566;2024-01-10T02:23:27;-5.20;31.70
356;DHT22;62514;48.112;11.566;2024-01-10T02:25:53;-5.30;31.70
356;DHT22;62514;48.112;11.566;2024-01-10T02:28:19;-5.20;31.70
356;DHT22;62514;48.112;11.566;2024-01-10T02:30:45;-5.20;31.70
356;DHT22;62514;48.112;11.566;2024-01-10T02:33:12;-5.40;31.60
356;DHT22;62514;48.112;11.566;2024-01-10T02:35:38;-5.70;32.30
356;DHT22;62514;48.112;11.566;2024-01-10T02:38:05;-5.90;33.60
356;DHT22;62514;48.112;11.566;2024-01-10T02:40:31;-5.90;35.00
356;DHT22;62514;48.112;11.566;2024-01-10T02:42:57;-5.90;35.90
356;DHT22;62514;48.112;11.566;2024-01-10T02:45:23;-5.80;36.30
356;DHT22;62514;48.112;11.566;2024-01-10T02:47:49;-5.60;36.50
356;DHT22;62514;48.112;11.566;2024-01-10T02:50:15;-5.50;35.80
356;DHT22;62514;48.112;11.566;2024-01-10T02:52:42;-5.50;35.00
356;DHT22;62514;48.112;11.566;2024-01-10T02:55:08;-5.40;34.30
356;DHT22;62514;48.112;11.566;2024-01-10T02:57:34;-5.40;34.00
356;DHT22;62514;48.112;11.566;2024-01-10T03:00:00;-5.30;33.60
356;DHT22;62514;48.112;11.566;2024-01-10T03:02:26;-5.40;32.60
356;DHT22;62514;48.112;11.566;2024-01-10T03:04:52;-5.30;32.90
356;DHT22;62514;48.112;11.566;2024-01-10T03:07:17;-5.30;32.20
356;DHT22;62514;48.112;11.566;2024-01-10T03:09:43;-5.40;31.60
356;DHT22;62514;48.112;11.566;2024-01-10T03:12:11;-5.40;31.60
356;DHT22;62514;48.112;11.566;2024-01-10T03:14:37;-5.50;31.60
356;DHT22;62514;48.112;11.566;2024-01-10T03:17:03;-5.50;31.70
356;DHT22;62514;48.112;11.566;2024-01-10T03:19:29;-5.50;32.50
356;DHT22;62514;48.112;11.566;2024-01-10T03:21:55;-5.50;32.40
356;DHT22;62514;48.112;11.566;2024-01-10T03:24:21;-5.50;32.80
356;DHT22;62514;48.112;11.566;2024-01-10T03:26:49;-5.40;32.50
356;DHT22;62514;48.112;11.566;2024-01-10T03:29:15;-5.40;32.90
356;DHT22;62514;48.112;11.566;2024-01-10T03:31:41;-5.30;32.90
356;DHT22;62514;48.112;11.566;2024-01-10T03:34:07;-5.30;32.80
356;DHT22;62514;48.112;11.566;2024-01-10T03:36:33;-5.30;33.10
356;DHT22;62514;48.112;11.566;2024-01-10T03:38:59;-5.20;33.10
356;DHT22;62514;48.112;11.566;2024-01-10T03:41:26;-5.20;32.40
356;DHT22;62514;48.112;11.566;2024-01-10T03:43:52;-5.20;32.10
356;DHT22;62514;48.112;11.566;2024-01-10T03:46:18;-5.20;32.00
356;DHT22;62514;48.112;11.566;2024-01-10T03:48:44;-5.30;31.70
356;DHT22;62514;48.112;11.566;2024-01-10T03:51:18;-5.40;31.60
356;DHT22;62514;48.112;11.566;2024-01-10T03:53:44;-5.40;31.80
356;DHT22;62514;48.112;11.566;2024-01-10T03:56:12;-5.30;32.10
356;DHT22;62514;48.112;11.566;2024-01-10T03:58:38;-5.30;31.70
356;DHT22;62514;48.112;11.566;2024-01-10T04:01:08;-5.40;31.60
356;DHT22;62514;48.112;11.566;2024-01-10T04:03:35;-5.40;31.60
356;DHT22;62514;48.112;11.566;2024-01-10T04:06:02;-5.40;32.10
356;DHT22;62514;48.112;11.566;2024-01-10T04:08:28;-5.30;32.20
356;DHT22;62514;48.112;11.566;2024-01-10T04:10:54;-5.30;31.80
356;DHT22;62514;48.112;11.566;2024-01-10T04:13:20;-5.50;32.20
356;DHT22;62514;48.112;11.566;2024-01-10T04:15:46;-5.40;33.30
356;DHT22;62514;48.112;11.566;2024-01-10T04:18:12;-5.40;33.30
356;DHT22;62514;48.112;11.566;2024-01-10T04:20:38;-5.40;32.60
356;DHT22;62514;48.112;11.566;2024-01-10T04:23:04;-5.30;32.50
356;DHT22;62514;48.112;11.566;2024-01-10T04:25:30;-5.40;32.00
356;DHT22;62514;48.112;11.566;2024-01-10T04:27:56;-5.40;31.60
356;DHT22;62514;48.112;11.566;2024-01-10T04:30:23;-5.50;32.10
356;DHT22;62514;48.112;11.566;2024-01-10T04:32:49;-5.50;32.20
356;DHT22;62514;48.112;11.566;2024-01-10T04:35:15;-5.50;32.60
356;DHT22;62514;48.112;11.566;2024-01-10T04:37:41;-5.40;33.10
356;DHT22;62514;48.112;11.566;2024-01-10T04:40:07;-5.40;32.90
356;DHT22;62514;48.112;11.566;2024-01-10T04:42:33;-5.40;32.60
356;DHT22;62514;48.112;11.566;2024-01-10T04:44:59;-5.40;32.30
356;DHT22;62514;48.112;11.566;2024-01-10T04:47:25;-5.40;32.90
356;DHT22;62514;48.112;11.566;2024-01-10T04:49:51;-5.30;32.90
356;DHT22;62514;48.112;11.566;2024-01-10T04:52:17;-5.30;32.40
356;DHT22;62514;48.112;11.566;2024-01-10T04:54:42;-5.30;31.90
356;DHT22;62514;48.112;11.566;2024-01-10T04:57:08;-5.20;31.80
356;DHT22;62514;48.112;11.566;2024-01-10T04:59:34;-5.20;31.70
356;DHT22;62514;48.112;11.566;2024-01-10T05:02:00;-5.20;31.80
356;DHT22;62514;48.112;11.566;2024-01-10T05:04:26;-5.20;31.00
356;DHT22;62514;48.112;11.566;2024-01-10T05:06:52;-5.20;31.50
356;DHT22;62514;48.112;11.566;2024-01-10T05:09:18;-5.20;30.90
356;DHT22;62514;48.112;11.566;2024-01-10T05:11:44;-5.20;30.70
356;DHT22;62514;48.112;11.566;2024-01-10T05:14:14;-5.20;30.50
356;DHT22;62514;48.112;11.566;2024-01-10T05:16:39;-5.30;30.10
356;DHT22;62514;48.112;11.566;2024-01-10T05:19:05;-5.30;30.20
356;DHT22;62514;48.112;11.566;2024-01-10T05:21:32;-5.30;30.60
356;DHT22;62514;48.112;11.566;2024-01-10T05:23:58;-5.40;30.20
356;DHT22;62514;48.112;11.566;2024-01-10T05:26:24;-5.40;31.20
356;DHT22;62514;48.112;11.566;2024-01-10T05:28:50;-5.40;31.60
356;DHT22;62514;48.112;11.566;2024-01-10T05:31:16;-5.40;31.00
356;DHT22;62514;48.112;11.566;2024-01-10T05:33:42;-5.40;30.80
356;DHT22;62514;48.112;11.566;2024-01-10T05:36:09;-5.30;30.60
356;DHT22;62514;48.112;11.566;2024-01-10T05:38:38;-5.30;30.70
356;DHT22;62514;48.112;11.566;2024-01-10T05:41:05;-5.30;30.70
356;DHT22;62514;48.112;11.566;2024-01-10T05:43:31;-5.30;30.50
356;DHT22;62514;48.112;11.566;2024-01-10T05:45:57;-5.30;30.40
356;DHT22;62514;48.112;11.566;2024-01-10T05:48:24;-5.40;30.10
356;DHT22;62514;48.112;11.566;2024-01-10T05:50:50;-5.40;31.60
356;DHT22;62514;48.112;11.566;2024-01-10T05:53:17;-5.40;31.70
356;DHT22;62514;48.112;11.566;2024-01-10T05:55:43;-5.30;31.70
356;DHT22;62514;48.112;11.566;2024-01-10T05:58:10;-5.40;30.80
356;DHT22;62514;48.112;11.566;2024-01-10T06:00:37;-5.30;30.80
356;DHT22;62514;48.112;11.566;2024-01-10T06:03:03;-5.30;30.50
356;DHT22;62514;48.112;11.566;2024-01-10T06:05:29;-5.30;30.80
356;DHT22;62514;48.112;11.566;2024-01-10T06:07:54;-5.30;30.60
356;DHT22;62514;48.112;11.566;2024-01-10T06:10:20;-5.30;30.50
356;DHT22;62514;48.112;11.566;2024-01-10T06:12:46;-5.50;29.80
356;DHT22;62514;48.112;11.566;2024-01-10T06:15:12;-5.50;31.60
356;DHT22;62514;48.112;11.566;2024-01-10T06:17:38;-5.40;31.60
356;DHT22;62514;48.112;11.566;2024-01-10T06:20:05;-5.40;31.60
356;DHT22;62514;48.112;11.566;2024-01-10T06:22:32;-5.40;31.40
356;DHT22;62514;48.112;11.566;2024-01-10T06:24:58;-5.40;31.20
356;DHT22;62514;48.112;11.566;2024-01-10T06:27:24;-5.60;31.00
356;DHT22;62514;48.112;11.566;2024-01-10T06:29:50;-5.60;32.20
356;DHT22;62514;48.112;11.566;2024-01-10T06:32:16;-5.50;32.40
356;DHT22;62514;48.112;11.566;2024-01-10T06:34:42;-5.50;32.20
356;DHT22;62514;48.112;11.566;2024-01-10T06:37:08;-5.40;31.70
356;DHT22;62514;48.112;11.566;2024-01-10T06:39:34;-5.40;31.60
356;DHT22;62514;48.112;11.566;2024-01-10T06:42:00;-5.30;31.70
356;DHT22;62514;48.112;11.566;2024-01-10T06:44:26;-5.30;31.70
356;DHT22;62514;48.112;11.566;2024-01-10T06:46:54;-5.20;31.20
356;DHT22;62514;48.112;11.566;2024-01-10T06:49:20;-5.30;30.70
356;DHT22;62514;48.112;11.566;2024-01-10T06:51:46;-5.20;30.40
356;DHT22;62514;48.112;11.566;2024-01-10T06:54:12;-5.30;29.90
356;DHT22;62514;48.112;11.566;2024-01-10T06:56:39;-5.30;29.50
356;DHT22;62514;48.112;11.566;2024-01-10T06:59:05;-5.30;29.70
356;DHT22;62514;48.112;11.566;2024-01-10T07:01:31;-5.30;29.30
356;DHT22;62514;48.112;11.566;2024-01-10T07:03:57;-5.30;29.30
356;DHT22;62514;48.112;11.566;2024-01-10T07:06:23;-5.30;29.30
356;DHT22;62514;48.112;11.566;2024-01-10T07:08:50;-5.30;29.30
356;DHT22;62514;48.112;11.566;2024-01-10T07:13:45;-5.30;29.30
356;DHT22;62514;48.112;11.566;2024-01-10T07:16:11;-5.30;29.20
356;DHT22;62514;48.112;11.566;2024-01-10T07:18:40;-5.30;29.00
356;DHT22;62514;48.112;11.566;2024-01-10T07:21:08;-5.30;28.90
356;DHT22;62514;48.112;11.566;2024-01-10T07:23:34;-5.40;28.60
356;DHT22;62514;48.112;11.566;2024-01-10T07:26:01;-5.40;28.20
356;DHT22;62514;48.112;11.566;2024-01-10T07:28:27;-5.40;28.50
356;DHT22;62514;48.112;11.566;2024-01-10T07:30:53;-5.40;28.80
356;DHT22;62514;48.112;11.566;2024-01-10T07:33:19;-5.50;28.90
356;DHT22;62514;48.112;11.566;2024-01-10T07:35:46;-5.50;29.00
356;DHT22;62514;48.112;11.566;2024-01-10T07:38:11;-5.40;29.20
356;DHT22;62514;48.112;11.566;2024-01-10T07:40:39;-5.40;28.90
356;DHT22;62514;48.112;11.566;2024-01-10T07:43:05;-5.40;28.30
356;DHT22;62514;48.112;11.566;2024-01-10T07:45:30;-5.40;27.70
356;DHT22;62514;48.112;11.566;2024-01-10T07:47:56;-5.40;28.00
356;DHT22;62514;48.112;11.566;2024-01-10T07:50:22;-5.50;27.80
356;DHT22;62514;48.112;11.566;2024-01-10T07:52:52;-5.40;28.20
356;DHT22;62514;48.112;11.566;2024-01-10T07:55:18;-5.40;28.20
356;DHT22;62514;48.112;11.566;2024-01-10T07:57:44;-5.30;27.90
356;DHT22;62514;48.112;11.566;2024-01-10T08:00:10;-5.20;28.00
356;DHT22;62514;48.112;11.566;2024-01-10T08:02:39;-5.20;27.00
356;DHT22;62514;48.112;11.566;2024-01-10T08:05:06;-5.10;26.70
356;DHT22;62514;48.112;11.566;2024-01-10T08:07:38;-5.00;26.40
356;DHT22;62514;48.112;11.566;2024-01-10T08:10:09;-5.00;25.80
356;DHT22;62514;48.112;11.566;2024-01-10T08:12:36;-4.90;25.70
356;DHT22;62514;48.112;11.566;2024-01-10T08:15:02;-4.90;25.10
356;DHT22;62514;48.112;11.566;2024-01-10T08:17:28;-4.90;25.00
356;DHT22;62514;48.112;11.566;2024-01-10T08:19:54;-4.90;24.50
356;DHT22;62514;48.112;11.566;2024-01-10T08:22:20;-4.90;24.10
356;DHT22;62514;48.112;11.566;2024-01-10T08:24:46;-4.90;24.30
356;DHT22;62514;48.112;11.566;2024-01-10T08:27:12;-4.90;23.80
356;DHT22;62514;48.112;11.566;2024-01-10T08:29:39;-4.80;24.40
356;DHT22;62514;48.112;11.566;2024-01-10T08:32:05;-4.80;24.20
356;DHT22;62514;48.112;11.566;2024-01-10T08:34:31;-4.70;23.80
356;DHT22;62514;48.112;11.566;2024-01-10T08:36:57;-4.70;23.20
356;DHT22;62514;48.112;11.566;2024-01-10T08:39:23;-4.60;23.00
356;DHT22;62514;48.112;11.566;2024-01-10T08:41:51;-4.60;22.80
356;DHT22;62514;48.112;11.566;2024-01-10T08:44:18;-4.60;22.80
356;DHT22;62514;48.112;11.566;2024-01-10T08:46:44;-4.40;22.90
356;DHT22;62514;48.112;11.566;2024-01-10T08:49:10;-4.40;22.60
356;DHT22;62514;48.112;11.566;2024-01-10T08:51:36;-4.30;22.30
356;DHT22;62514;48.112;11.566;2024-01-10T08:54:02;-4.20;21.70
356;DHT22;62514;48.112;11.566;2024-01-10T08:56:29;-4.20;21.10
356;DHT22;62514;48.112;11.566;2024-01-10T08:58:55;-4.20;21.10
356;DHT22;62514;48.112;11.566;2024-01-10T09:01:21;-4.00;21.20
356;DHT22;62514;48.112;11.566;2024-01-10T09:03:48;-4.10;19.80
356;DHT22;62514;48.112;11.566;2024-01-10T09:06:14;-4.10;20.00
356;DHT22;62514;48.112;11.566;2024-01-10T09:08:40;-4.00;20.10
356;DHT22;62514;48.112;11.566;2024-01-10T09:11:06;-4.00;19.90
356;DHT22;62514;48.112;11.566;2024-01-10T09:13:32;-3.90;19.80
356;DHT22;62514;48.112;11.566;2024-01-10T09:15:59;-3.80;19.30
356;DHT22;62514;48.112;11.566;2024-01-10T09:18:25;-3.90;18.90
356;DHT22;62514;48.112;11.566;2024-01-10T09:20:51;-3.90;19.20
356;DHT22;62514;48.112;11.566;2024-01-10T09:23:17;-3.90;19.20
356;DHT22;62514;48.112;11.566;2024-01-10T09:25:44;-3.80;19.30
356;DHT22;62514;48.112;11.566;2024-01-10T09:28:10;-3.70;19.30
356;DHT22;62514;48.112;11.566;2024-01-10T09:30:36;-3.80;18.40
356;DHT22;62514;48.112;11.566;2024-01-10T09:33:02;-3.80;18.60
356;DHT22;62514;48.112;11.566;2024-01-10T09:35:28;-3.80;18.30
356;DHT22;62514;48.112;11.566;2024-01-10T09:37:54;-3.90;18.50
356;DHT22;62514;48.112;11.566;2024-01-10T09:40:20;-3.80;18.80
356;DHT22;62514;48.112;11.566;2024-01-10T09:42:53;-3.80;18.90
356;DHT22;62514;48.112;11.566;2024-01-10T09:45:21;-3.70;19.20
356;DHT22;62514;48.112;11.566;2024-01-10T09:47:49;-3.70;18.60
356;DHT22;62514;48.112;11.566;2024-01-10T09:50:17;-3.70;19.00
356;DHT22;62514;48.112;11.566;2024-01-10T09:52:57;-3.50;19.20
356;DHT22;62514;48.112;11.566;2024-01-10T09:55:26;-3.50;18.30
356;DHT22;62514;48.112;11.566;2024-01-10T09:57:56;-3.50;17.60
356;DHT22;62514;48.112;11.566;2024-01-10T10:00:22;-3.50;17.90
356;DHT22;62514;48.112;11.566;2024-01-10T10:02:51;-3.30;18.10
356;DHT22;62514;48.112;11.566;2024-01-10T10:05:19;-3.40;16.80
356;DHT22;62514;48.112;11.566;2024-01-10T10:07:54;-3.20;17.60
356;DHT22;62514;48.112;11.566;2024-01-10T10:10:21;-3.10;16.90
356;DHT22;62514;48.112;11.566;2024-01-10T10:12:52;-2.90;17.00
356;DHT22;62514;48.112;11.566;2024-01-10T10:15:22;-2.90;16.00
356;DHT22;62514;48.112;11.566;2024-01-10T10:17:50;-3.10;16.30
356;DHT22;62514;48.112;11.566;2024-01-10T10:20:24;-3.10;17.30
356;DHT22;62514;48.112;11.566;2024-01-10T10:23:01;-2.70;18.00
356;DHT22;62514;48.112;11.566;2024-01-10T10:27:58;-2.50;15.10
356;DHT22;62514;48.112;11.566;2024-01-10T10:30:26;-2.10;15.80
356;DHT22;62514;48.112;11.566;2024-01-10T10:32:52;-1.80;15.10
356;DHT22;62514;48.112;11.566;2024-01-10T10:35:19;-1.40;14.10
356;DHT22;62514;48.112;11.566;2024-01-10T10:37:52;-1.20;13.00
356;DHT22;62514;48.112;11.566;2024-01-10T10:40:19;-1.10;12.00
356;DHT22;62514;48.112;11.566;2024-01-10T10:42:47;-0.90;11.50
356;DHT22;62514;48.112;11.566;2024-01-10T10:45:17;-1.00;8.90
356;DHT22;62514;48.112;11.566;2024-01-10T10:47:45;-1.10;10.00
356;DHT22;62514;48.112;11.566;2024-01-10T10:50:27;-1.60;10.20
356;DHT22;62514;48.112;11.566;2024-01-10T10:52:55;-1.20;12.80
356;DHT22;62514;48.112;11.566;2024-01-10T10:55:22;-0.90;11.40
356;DHT22;62514;48.112;11.566;2024-01-10T10:57:50;-0.50;11.20
356;DHT22;62514;48.112;11.566;2024-01-10T11:00:19;-0.20;10.00
356;DHT22;62514;48.112;11.566;2024-01-10T11:02:46;-0.30;7.00
356;DHT22;62514;48.112;11.566;2024-01-10T11:05:12;-0.30;9.00
356;DHT22;62514;48.112;11.566;2024-01-10T11:07:40;-0.10;9.30
356;DHT22;62514;48.112;11.566;2024-01-10T11:10:21;0.00;8.50
356;DHT22;62514;48.112;11.566;2024-01-10T11:23:45;-1.40;13.50
356;DHT22;62514;48.112;11.566;2024-01-10T11:26:14;-0.90;12.50
356;DHT22;62514;48.112;11.566;2024-01-10T11:28:41;-0.40;12.40
356;DHT22;62514;48.112;11.566;2024-01-10T11:31:08;0.20;10.60
356;DHT22;62514;48.112;11.566;2024-01-10T11:33:41;-0.30;8.70
356;DHT22;62514;48.112;11.566;2024-01-10T11:36:35;0.00;9.50
356;DHT22;62514;48.112;11.566;2024-01-10T11:39:04;0.30;9.50
356;DHT22;62514;48.112;11.566;2024-01-10T11:41:32;0.30;6.50
356;DHT22;62514;48.112;11.566;2024-01-10T11:46:47;0.30;8.70
356;DHT22;62514;48.112;11.566;2024-01-10T11:49:15;0.50;9.50
356;DHT22;62514;48.112;11.566;2024-01-10T11:51:54;0.40;6.60
356;DHT22;62514;48.112;11.566;2024-01-10T11:54:37;0.50;8.60
356;DHT22;62514;48.112;11.566;2024-01-10T11:57:08;0.80;7.30
356;DHT22;62514;48.112;11.566;2024-01-10T11:59:34;1.00;7.50
356;DHT22;62514;48.112;11.566;2024-01-10T12:02:01;1.10;7.50
356;DHT22;62514;48.112;11.566;2024-01-10T12:04:31;1.20;6.70
356;DHT22;62514;48.112;11.566;2024-01-10T12:06:57;0.80;5.60
356;DHT22;62514;48.112;11.566;2024-01-10T12:09:24;0.40;7.40
356;DHT22;62514;48.112;11.566;2024-01-10T12:11:50;0.50;7.90
356;DHT22;62514;48.112;11.566;2024-01-10T12:14:17;0.60;8.30
356;DHT22;62514;48.112;11.566;2024-01-10T12:16:43;0.60;6.80
356;DHT22;62514;48.112;11.566;2024-01-10T12:19:09;0.60;8.40
356;DHT22;62514;48.112;11.566;2024-01-10T12:21:35;0.10;10.30
356;DHT22;62514;48.112;11.566;2024-01-10T12:24:03;0.10;8.80
356;DHT22;62514;48.112;11.566;2024-01-10T12:26:31;0.30;9.70
356;DHT22;62514;48.112;11.566;2024-01-10T12:28:59;-0.10;8.70
356;DHT22;62514;48.112;11.566;2024-01-10T12:31:29;-0.20;11.50
356;DHT22;62514;48.112;11.566;2024-01-10T12:33:55;-0.20;11.00
356;DHT22;62514;48.112;11.566;2024-01-10T12:36:21;0.20;11.20
356;DHT22;62514;48.112;11.566;2024-01-10T12:38:47;0.40;9.90
356;DHT22;62514;48.112;11.566;2024-01-10T12:41:18;0.50;9.50
356;DHT22;62514;48.112;11.566;2024-01-10T12:43:58;-0.40;9.00
356;DHT22;62514;48.112;11.566;2024-01-10T12:46:25;-0.50;10.90
356;DHT22;62514;48.112;11.566;2024-01-10T12:51:29;-0.80;13.10
356;DHT22;62514;48.112;11.566;2024-01-10T12:53:55;-0.80;13.10
356;DHT22;62514;48.112;11.566;2024-01-10T12:56:24;-0.50;12.80
356;DHT22;62514;48.112;11.566;2024-01-10T12:58:50;-1.40;12.90
356;DHT22;62514;48.112;11.566;2024-01-10T13:01:16;-2.10;16.50
356;DHT22;62514;48.112;11.566;2024-01-10T13:03:42;-2.10;19.10
356;DHT22;62514;48.112;11.566;2024-01-10T13:06:09;-1.80;18.70
356;DHT22;62514;48.112;11.566;2024-01-10T13:08:36;-2.30;18.70
356;DHT22;62514;48.112;11.566;2024-01-10T13:11:02;-2.60;21.40
356;DHT22;62514;48.112;11.566;2024-01-10T13:13:36;-3.00;22.80
356;DHT22;62514;48.112;11.566;2024-01-10T13:16:02;-2.80;24.90
356;DHT22;62514;48.112;11.566;2024-01-10T13:18:28;-2.60;24.60
356;DHT22;62514;48.112;11.566;2024-01-10T13:20:55;-2.60;23.90
356;DHT22;62514;48.112;11.566;2024-01-10T13:23:21;-2.40;23.30
356;DHT22;62514;48.112;11.566;2024-01-10T13:25:51;-2.30;22.00
356;DHT22;62514;48.112;11.566;2024-01-10T13:28:18;-2.30;21.90
356;DHT22;62514;48.112;11.566;2024-01-10T13:30:44;-2.50;21.80
356;DHT22;62514;48.112;11.566;2024-01-10T13:33:10;-2.80;23.10
356;DHT22;62514;48.112;11.566;2024-01-10T13:35:37;-2.90;24.80
356;DHT22;62514;48.112;11.566;2024-01-10T13:38:04;-2.70;25.40
356;DHT22;62514;48.112;11.566;2024-01-10T13:40:30;-2.50;26.00
356;DHT22;62514;48.112;11.566;2024-01-10T13:42:57;-2.30;24.20
356;DHT22;62514;48.112;11.566;2024-01-10T13:45:23;-2.20;23.80
356;DHT22;62514;48.112;11.566;2024-01-10T13:47:50;-2.20;22.80
356;DHT22;62514;48.112;11.566;2024-01-10T13:50:16;-2.10;22.50
356;DHT22;62514;48.112;11.566;2024-01-10T13:52:42;-2.40;21.80
356;DHT22;62514;48.112;11.566;2024-01-10T13:55:09;-2.60;21.70
356;DHT22;62514;48.112;11.566;2024-01-10T13:57:35;-2.80;23.40
356;DHT22;62514;48.112;11.566;2024-01-10T14:00:02;-2.70;24.00
356;DHT22;62514;48.112;11.566;2024-01-10T14:02:29;-2.90;23.90
356;DHT22;62514;48.112;11.566;2024-01-10T14:04:55;-3.00;25.20
356;DHT22;62514;48.112;11.566;2024-01-10T14:07:23;-2.90;25.70
356;DHT22;62514;48.112;11.566;2024-01-10T14:09:50;-3.00;24.40
356;DHT22;62514;48.112;11.566;2024-01-10T14:12:16;-3.50;27.00
356;DHT22;62514;48.112;11.566;2024-01-10T14:14:42;-3.70;29.10
356;DHT22;62514;48.112;11.566;2024-01-10T14:17:09;-3.70;30.50
356;DHT22;62514;48.112;11.566;2024-01-10T14:19:35;-3.60;31.30
356;DHT22;62514;48.112;11.566;2024-01-10T14:22:01;-3.40;31.50
356;DHT22;62514;48.112;11.566;2024-01-10T14:24:27;-3.30;30.30
356;DHT22;62514;48.112;11.566;2024-01-10T14:26:53;-3.50;29.30
356;DHT22;62514;48.112;11.566;2024-01-10T14:29:20;-3.50;31.10
356;DHT22;62514;48.112;11.566;2024-01-10T14:31:48;-3.50;31.90
356;DHT22;62514;48.112;11.566;2024-01-10T14:34:15;-3.50;30.70
356;DHT22;62514;48.112;11.566;2024-01-10T14:36:41;-3.40;31.40
356;DHT22;62514;48.112;11.566;2024-01-10T14:39:07;-3.30;31.30
356;DHT22;62514;48.112;11.566;2024-01-10T14:41:33;-3.20;30.70
356;DHT22;62514;48.112;11.566;2024-01-10T14:44:02;-3.50;28.30
356;DHT22;62514;48.112;11.566;2024-01-10T14:46:29;-3.50;30.40
356;DHT22;62514;48.112;11.566;2024-01-10T14:48:55;-3.80;32.30
356;DHT22;62514;48.112;11.566;2024-01-10T14:51:21;-3.70;32.50
356;DHT22;62514;48.112;11.566;2024-01-10T14:53:47;-3.80;32.30
356;DHT22;62514;48.112;11.566;2024-01-10T14:56:13;-3.90;31.70
356;DHT22;62514;48.112;11.566;2024-01-10T14:58:39;-3.70;32.40
356;DHT22;62514;48.112;11.566;2024-01-10T15:01:12;-3.70;32.40
356;DHT22;62514;48.112;11.566;2024-01-10T15:03:38;-3.70;32.40
356;DHT22;62514;48.112;11.566;2024-01-10T15:06:05;-3.70;32.40
356;DHT22;62514;48.112;11.566;2024-01-10T15:08:31;-3.80;32.30
356;DHT22;62514;48.112;11.566;2024-01-10T15:11:00;-3.70;32.40
356;DHT22;62514;48.112;11.566;2024-01-10T15:13:26;-3.70;32.40
356;DHT22;62514;48.112;11.566;2024-01-10T15:15:52;-3.70;32.10
356;DHT22;62514;48.112;11.566;2024-01-10T15:18:18;-3.70;31.90
356;DHT22;62514;48.112;11.566;2024-01-10T15:20:45;-3.70;31.50
356;DHT22;62514;48.112;11.566;2024-01-10T15:23:12;-3.60;32.20
356;DHT22;62514;48.112;11.566;2024-01-10T15:25:38;-3.70;32.30
356;DHT22;62514;48.112;11.566;2024-01-10T15:28:04;-3.70;32.30
356;DHT22;62514;48.112;11.566;2024-01-10T15:30:30;-3.70;32.00
356;DHT22;62514;48.112;11.566;2024-01-10T15:32:58;-3.90;31.50
356;DHT22;62514;48.112;11.566;2024-01-10T15:35:24;-3.90;32.30
356;DHT22;62514;48.112;11.566;2024-01-10T15:37:51;-3.90;32.70
356;DHT22;62514;48.112;11.566;2024-01-10T15:40:18;-3.90;33.40
356;DHT22;62514;48.112;11.566;2024-01-10T15:42:44;-3.90;33.70
356;DHT22;62514;48.112;11.566;2024-01-10T15:45:14;-4.20;34.30
356;DHT22;62514;48.112;11.566;2024-01-10T15:47:40;-4.30;36.40
356;DHT22;62514;48.112;11.566;2024-01-10T15:50:07;-4.30;37.50
356;DHT22;62514;48.112;11.566;2024-01-10T15:52:34;-4.20;37.90
356;DHT22;62514;48.112;11.566;2024-01-10T15:55:01;-4.10;37.60
356;DHT22;62514;48.112;11.566;2024-01-10T15:57:27;-4.00;37.60
356;DHT22;62514;48.112;11.566;2024-01-10T15:59:53;-4.00;37.50
356;DHT22;62514;48.112;11.566;2024-01-10T16:02:19;-3.90;37.10
356;DHT22;62514;48.112;11.566;2024-01-10T16:04:45;-3.90;37.10
356;DHT22;62514;48.112;11.566;2024-01-10T16:07:12;-3.90;36.70